createdAt,value
2022-07-29T00:02:27.732Z,1.90
2022-07-29T00:04:54.950Z,2.20
2022-07-29T00:07:21.915Z,2.10
2022-07-29T00:09:51.220Z,1.90
2022-07-29T00:12:25.479Z,1.50
2022-07-29T00:14:54.882Z,2.10
2022-07-29T00:17:22.397Z,1.90
2022-07-29T00:19:49.271Z,1.40
2022-07-29T00:22:16.276Z,1.80
2022-07-29T00:24:43.212Z,1.70
2022-07-29T00:27:10.006Z,1.40
2022-07-29T00:29:36.904Z,1.50
2022-07-29T00:32:03.966Z,1.80
2022-07-29T00:34:50.318Z,1.50
2022-07-29T00:37:17.206Z,2.10
2022-07-29T00:39:44.230Z,2.10
2022-07-29T00:42:11.510Z,2.20
2022-07-29T00:44:41.952Z,2.10
2022-07-29T00:47:10.700Z,1.80
2022-07-29T00:49:39.763Z,2.00
2022-07-29T00:52:07.783Z,2.00
2022-07-29T00:54:37.445Z,2.30
2022-07-29T00:57:13.354Z,1.90
2022-07-29T00:59:40.338Z,2.00
2022-07-29T01:02:07.276Z,1.50
2022-07-29T01:04:34.450Z,1.90
2022-07-29T01:07:02.520Z,1.60
2022-07-29T01:09:45.403Z,2.30
2022-07-29T01:12:20.720Z,1.70
2022-07-29T01:14:50.743Z,2.30
2022-07-29T01:17:21.344Z,2.30
2022-07-29T01:20:09.105Z,2.40
2022-07-29T01:22:43.130Z,2.00
2022-07-29T01:25:16.109Z,1.90
2022-07-29T01:28:11.834Z,2.20
2022-07-29T01:30:42.666Z,1.90
2022-07-29T01:33:34.277Z,2.00
2022-07-29T01:36:10.211Z,1.60
2022-07-29T01:38:40.153Z,1.80
2022-07-29T01:41:11.470Z,2.30
2022-07-29T01:43:52.448Z,2.50
2022-07-29T01:46:25.993Z,2.10
2022-07-29T01:49:02.939Z,2.10
2022-07-29T01:51:41.243Z,2.10
2022-07-29T01:54:11.548Z,2.10
2022-07-29T01:56:39.561Z,1.60
2022-07-29T01:59:08.909Z,1.70
2022-07-29T02:01:39.879Z,2.00
2022-07-29T02:04:10.645Z,2.20
2022-07-29T02:06:41.170Z,2.00
2022-07-29T02:09:11.073Z,1.70
2022-07-29T02:11:39.436Z,2.10
2022-07-29T02:14:08.716Z,2.10
2022-07-29T02:16:38.809Z,1.60
2022-07-29T02:19:07.730Z,2.00
2022-07-29T02:21:36.493Z,1.80
2022-07-29T02:24:05.491Z,2.10
2022-07-29T02:26:34.341Z,2.10
2022-07-29T02:29:02.604Z,2.10
2022-07-29T02:31:34.386Z,1.40
2022-07-29T02:34:03.929Z,1.80
2022-07-29T02:36:32.870Z,1.70
2022-07-29T02:39:01.212Z,1.70
2022-07-29T02:41:36.703Z,1.40
2022-07-29T02:44:10.683Z,1.80
2022-07-29T02:46:42.279Z,1.70
2022-07-29T02:49:30.164Z,1.60
2022-07-29T02:52:03.838Z,1.60
2022-07-29T02:54:45.057Z,1.90
2022-07-29T02:57:20.990Z,1.80
2022-07-29T03:02:18.064Z,1.40
2022-07-29T03:04:46.608Z,2.50
2022-07-29T03:07:16.163Z,1.90
2022-07-29T03:09:43.533Z,1.80
2022-07-29T03:12:11.566Z,2.00
2022-07-29T03:14:38.986Z,1.60
2022-07-29T03:17:06.298Z,2.00
2022-07-29T03:19:34.737Z,2.10
2022-07-29T03:22:01.907Z,1.80
2022-07-29T03:24:34.631Z,1.60
2022-07-29T03:27:02.712Z,1.80
2022-07-29T03:29:33.803Z,1.90
2022-07-29T03:32:04.308Z,2.10
2022-07-29T03:34:34.308Z,2.10
2022-07-29T03:37:01.195Z,2.00
2022-07-29T03:39:31.829Z,1.70
2022-07-29T03:42:00.828Z,1.90
2022-07-29T03:44:29.685Z,2.10
2022-07-29T03:47:01.555Z,2.50
2022-07-29T03:49:28.902Z,2.20
2022-07-29T03:51:56.001Z,2.30
2022-07-29T03:54:23.237Z,2.20
2022-07-29T03:56:53.052Z,1.80
2022-07-29T03:59:22.003Z,2.20
2022-07-29T04:01:50.491Z,1.80
2022-07-29T04:04:18.012Z,1.70
2022-07-29T04:06:48.358Z,2.20
2022-07-29T04:09:15.329Z,2.70
2022-07-29T04:12:02.891Z,1.80
2022-07-29T04:14:31.426Z,2.30
2022-07-29T04:16:58.287Z,1.90
2022-07-29T04:19:24.982Z,1.90
2022-07-29T04:21:51.783Z,2.70
2022-07-29T04:24:19.108Z,1.70
2022-07-29T04:26:46.949Z,1.70
2022-07-29T04:29:14.919Z,2.30
2022-07-29T04:31:42.508Z,2.10
2022-07-29T04:34:10.108Z,1.60
2022-07-29T04:36:37.377Z,2.30
2022-07-29T04:39:04.394Z,1.90
2022-07-29T04:41:33.254Z,1.90
2022-07-29T04:44:05.327Z,1.80
2022-07-29T04:46:32.553Z,2.10
2022-07-29T04:48:59.383Z,1.50
2022-07-29T04:51:26.310Z,1.80
2022-07-29T04:53:53.024Z,2.20
2022-07-29T04:56:19.823Z,1.90
2022-07-29T04:58:46.604Z,2.00
2022-07-29T05:01:13.865Z,1.90
2022-07-29T05:03:40.916Z,1.10
2022-07-29T05:06:07.699Z,1.80
2022-07-29T05:08:34.491Z,1.80
2022-07-29T05:11:12.174Z,1.70
2022-07-29T05:13:45.218Z,1.70
2022-07-29T05:16:14.681Z,1.70
2022-07-29T05:18:42.511Z,2.00
2022-07-29T05:21:09.387Z,2.10
2022-07-29T05:23:36.291Z,1.80
2022-07-29T05:26:03.106Z,1.60
2022-07-29T05:28:34.002Z,1.60
2022-07-29T05:31:01.499Z,1.60
2022-07-29T05:33:35.633Z,1.90
2022-07-29T05:36:08.072Z,1.80
2022-07-29T05:38:35.953Z,1.80
2022-07-29T05:41:03.242Z,1.80
2022-07-29T05:43:30.642Z,1.50
2022-07-29T05:45:57.826Z,1.90
2022-07-29T05:48:25.209Z,1.60
2022-07-29T05:50:52.240Z,2.10
2022-07-29T05:53:20.526Z,2.00
2022-07-29T05:55:48.974Z,1.60
2022-07-29T05:58:16.341Z,1.70
2022-07-29T06:00:43.105Z,2.10
2022-07-29T06:03:09.917Z,1.70
2022-07-29T06:05:36.679Z,1.70
2022-07-29T06:08:06.257Z,1.80
2022-07-29T06:10:33.678Z,1.60
2022-07-29T06:13:00.599Z,1.50
2022-07-29T06:15:28.627Z,1.70
2022-07-29T06:17:59.999Z,1.60
2022-07-29T06:20:32.136Z,1.70
2022-07-29T06:23:00.003Z,1.70
2022-07-29T06:25:29.665Z,2.10
2022-07-29T06:27:57.064Z,1.90
2022-07-29T06:30:23.995Z,1.60
2022-07-29T06:32:50.841Z,1.30
2022-07-29T06:35:41.306Z,1.60
2022-07-29T06:38:06.379Z,1.70
2022-07-29T06:41:02.557Z,2.00
2022-07-29T06:43:50.604Z,1.70
2022-07-29T06:46:21.364Z,1.50
2022-07-29T06:48:48.850Z,2.10
2022-07-29T06:51:16.878Z,1.80
2022-07-29T06:54:00.141Z,1.50
2022-07-29T06:56:38.554Z,1.80
2022-07-29T06:59:12.566Z,1.80
2022-07-29T07:01:42.635Z,1.40
2022-07-29T07:04:10.262Z,1.60
2022-07-29T07:06:38.170Z,1.30
2022-07-29T07:09:05.480Z,1.60
2022-07-29T07:11:32.301Z,1.60
2022-07-29T07:14:03.363Z,1.70
2022-07-29T07:16:36.901Z,1.40
2022-07-29T07:19:04.002Z,1.50
2022-07-29T07:21:31.550Z,1.70
2022-07-29T07:23:59.653Z,2.00
2022-07-29T07:26:28.248Z,2.00
2022-07-29T07:28:55.122Z,1.80
2022-07-29T07:31:22.174Z,1.70
2022-07-29T07:33:49.013Z,1.80
2022-07-29T07:36:15.765Z,1.80
2022-07-29T07:38:42.500Z,1.70
2022-07-29T07:41:09.281Z,1.60
2022-07-29T07:43:36.042Z,1.40
2022-07-29T07:46:03.055Z,1.50
2022-07-29T07:48:29.863Z,1.50
2022-07-29T07:50:56.731Z,1.40
2022-07-29T07:53:23.669Z,1.20
2022-07-29T07:58:38.941Z,1.30
2022-07-29T08:01:07.872Z,1.10
2022-07-29T08:03:35.584Z,1.60
2022-07-29T08:06:04.216Z,1.20
2022-07-29T08:08:31.277Z,1.50
2022-07-29T08:10:59.276Z,1.30
2022-07-29T08:13:30.843Z,1.00
2022-07-29T08:15:58.583Z,1.30
2022-07-29T08:18:29.985Z,1.30
2022-07-29T08:20:57.534Z,1.30
2022-07-29T08:23:25.302Z,1.20
2022-07-29T08:25:52.509Z,1.20
2022-07-29T08:28:22.161Z,1.30
2022-07-29T08:30:53.258Z,1.20
2022-07-29T08:33:20.119Z,1.00
2022-07-29T08:35:47.049Z,1.60
2022-07-29T08:38:14.004Z,1.10
2022-07-29T08:40:40.848Z,1.40
2022-07-29T08:43:09.001Z,1.30
2022-07-29T08:45:48.159Z,1.50
2022-07-29T08:48:18.891Z,1.20
2022-07-29T08:50:47.035Z,1.50
2022-07-29T08:53:16.459Z,1.20
2022-07-29T08:55:44.718Z,1.00
2022-07-29T08:58:13.261Z,1.10
2022-07-29T09:00:50.305Z,1.30
2022-07-29T09:03:19.929Z,1.40
2022-07-29T09:05:48.203Z,1.50
2022-07-29T09:08:16.748Z,1.10
2022-07-29T09:10:44.927Z,1.50
2022-07-29T09:13:12.024Z,1.40
2022-07-29T09:15:39.081Z,1.30
2022-07-29T09:18:06.085Z,1.30
2022-07-29T09:20:51.636Z,1.40
2022-07-29T09:23:23.071Z,1.10
2022-07-29T09:25:51.478Z,1.20
2022-07-29T09:28:20.106Z,1.10
2022-07-29T09:30:59.478Z,1.20
2022-07-29T09:33:35.152Z,1.20
2022-07-29T09:36:09.862Z,1.60
2022-07-29T09:38:40.034Z,1.40
2022-07-29T09:41:09.048Z,1.20
2022-07-29T09:43:36.356Z,1.40
2022-07-29T09:46:13.930Z,1.50
2022-07-29T09:48:40.917Z,1.60
2022-07-29T09:51:26.724Z,1.50
2022-07-29T09:53:55.296Z,2.60
2022-07-29T09:56:42.106Z,1.60
2022-07-29T09:59:09.685Z,1.40
2022-07-29T10:01:36.530Z,1.50
2022-07-29T10:04:03.732Z,1.70
2022-07-29T10:06:30.487Z,1.30
2022-07-29T10:09:17.756Z,1.60
2022-07-29T10:12:14.329Z,1.80
2022-07-29T10:14:42.926Z,1.40
2022-07-29T10:17:11.142Z,1.40
2022-07-29T10:19:39.564Z,1.70
2022-07-29T10:22:09.080Z,1.10
2022-07-29T10:24:37.846Z,1.40
2022-07-29T10:27:07.678Z,1.30
2022-07-29T10:29:35.040Z,1.60
2022-07-29T10:32:05.050Z,1.60
2022-07-29T10:34:59.698Z,1.40
2022-07-29T10:37:45.921Z,1.20
2022-07-29T10:40:34.731Z,1.70
2022-07-29T10:43:17.981Z,1.50
2022-07-29T10:45:48.745Z,1.60
2022-07-29T10:48:17.130Z,1.50
2022-07-29T10:50:56.093Z,1.50
2022-07-29T10:53:24.208Z,1.40
2022-07-29T10:55:52.845Z,1.80
2022-07-29T10:58:24.510Z,1.30
2022-07-29T11:00:54.854Z,1.20
2022-07-29T11:03:49.707Z,1.60
2022-07-29T11:06:26.654Z,1.70
2022-07-29T11:09:25.733Z,1.50
2022-07-29T11:12:03.138Z,1.60
2022-07-29T11:14:56.606Z,1.70
2022-07-29T11:17:23.548Z,1.50
2022-07-29T11:19:52.418Z,1.80
2022-07-29T11:22:37.717Z,2.00
2022-07-29T11:25:18.791Z,1.50
2022-07-29T11:27:46.360Z,1.80
2022-07-29T11:30:15.102Z,1.50
2022-07-29T11:32:44.944Z,1.80
2022-07-29T11:35:38.123Z,2.00
2022-07-29T11:38:22.799Z,2.30
2022-07-29T11:41:20.847Z,1.80
2022-07-29T11:43:56.224Z,1.50
2022-07-29T11:46:49.130Z,1.80
2022-07-29T11:49:22.215Z,1.80
2022-07-29T11:52:03.918Z,1.30
2022-07-29T11:57:36.582Z,2.20
2022-07-29T12:00:09.695Z,1.90
2022-07-29T12:02:48.187Z,1.40
2022-07-29T12:05:24.029Z,1.50
2022-07-29T12:08:12.485Z,1.40
2022-07-29T12:10:42.970Z,1.80
2022-07-29T12:13:11.282Z,1.70
2022-07-29T12:15:47.216Z,1.80
2022-07-29T12:18:18.214Z,1.80
2022-07-29T12:20:47.161Z,1.90
2022-07-29T12:23:16.186Z,1.70
2022-07-29T12:25:45.107Z,1.90
2022-07-29T12:28:27.660Z,1.50
2022-07-29T12:30:55.211Z,1.90
2022-07-29T12:33:24.536Z,1.80
2022-07-29T12:36:06.927Z,2.20
2022-07-29T12:38:36.279Z,1.80
2022-07-29T12:41:04.423Z,1.80
2022-07-29T12:43:32.020Z,2.10
2022-07-29T12:46:15.730Z,2.20
2022-07-29T12:48:44.469Z,1.60
2022-07-29T12:51:14.736Z,1.60
2022-07-29T12:53:41.551Z,1.90
2022-07-29T12:56:40.487Z,2.00
2022-07-29T12:59:15.001Z,2.10
2022-07-29T13:01:42.161Z,1.70
2022-07-29T13:04:08.989Z,2.00
2022-07-29T13:06:42.137Z,1.90
2022-07-29T13:09:14.950Z,2.30
2022-07-29T13:11:58.719Z,2.00
2022-07-29T13:14:32.108Z,2.20
2022-07-29T13:17:08.226Z,1.60
2022-07-29T13:19:45.742Z,2.00
2022-07-29T13:22:23.337Z,1.90
2022-07-29T13:24:56.372Z,1.90
2022-07-29T13:27:27.921Z,1.50
2022-07-29T13:30:00.184Z,1.80
2022-07-29T13:32:29.262Z,1.60
2022-07-29T13:34:57.895Z,2.10
2022-07-29T13:37:25.326Z,2.00
2022-07-29T13:39:53.428Z,1.80
2022-07-29T13:42:21.584Z,1.90
2022-07-29T13:44:52.297Z,1.90
2022-07-29T13:47:20.899Z,2.20
2022-07-29T13:49:48.582Z,2.20
2022-07-29T13:52:16.161Z,2.40
2022-07-29T13:54:43.841Z,2.10
2022-07-29T13:57:12.225Z,1.60
2022-07-29T13:59:42.847Z,1.90
2022-07-29T14:02:10.710Z,1.80
2022-07-29T14:04:39.639Z,1.80
2022-07-29T14:07:07.443Z,1.90
2022-07-29T14:09:41.025Z,2.30
2022-07-29T14:12:09.075Z,1.90
2022-07-29T14:14:36.934Z,1.60
2022-07-29T14:17:06.598Z,1.70
2022-07-29T14:19:36.015Z,2.00
2022-07-29T14:22:04.499Z,2.50
2022-07-29T14:24:32.337Z,2.30
2022-07-29T14:26:59.779Z,2.00
2022-07-29T14:29:37.765Z,2.20
2022-07-29T14:32:07.541Z,2.30
2022-07-29T14:34:36.033Z,2.10
2022-07-29T14:37:05.644Z,1.90
2022-07-29T14:39:32.893Z,2.10
2022-07-29T14:42:00.201Z,2.20
2022-07-29T14:44:31.467Z,2.30
2022-07-29T14:47:00.047Z,2.20
2022-07-29T14:49:27.842Z,2.10
2022-07-29T14:51:54.765Z,2.10
2022-07-29T14:54:21.709Z,2.20
2022-07-29T14:56:49.768Z,2.40
2022-07-29T14:59:16.972Z,2.30
2022-07-29T15:01:43.830Z,2.30
2022-07-29T15:04:10.903Z,2.00
2022-07-29T15:06:38.337Z,2.00
2022-07-29T15:09:06.363Z,2.10
2022-07-29T15:11:38.431Z,2.00
2022-07-29T15:14:06.501Z,2.40
2022-07-29T15:16:35.667Z,2.10
2022-07-29T15:19:02.841Z,2.00
2022-07-29T15:21:29.918Z,2.30
2022-07-29T15:23:56.795Z,4.60
2022-07-29T15:26:23.720Z,6.40
2022-07-29T15:28:50.413Z,3.50
2022-07-29T15:31:19.187Z,4.10
2022-07-29T15:33:45.995Z,3.80
2022-07-29T15:36:25.465Z,2.70
2022-07-29T15:39:01.816Z,2.50
2022-07-29T15:41:28.696Z,2.40
2022-07-29T15:43:55.551Z,2.10
2022-07-29T15:46:40.951Z,2.00
2022-07-29T15:49:08.487Z,2.10
2022-07-29T15:51:35.365Z,2.00
2022-07-29T15:54:05.504Z,2.50
2022-07-29T15:56:32.367Z,2.40
2022-07-29T15:58:59.719Z,2.00
2022-07-29T16:01:28.011Z,2.40
2022-07-29T16:03:59.253Z,2.70
2022-07-29T16:06:26.117Z,2.00
2022-07-29T16:08:55.357Z,2.30
2022-07-29T16:11:22.208Z,2.30
2022-07-29T16:13:49.047Z,2.60
2022-07-29T16:16:18.037Z,2.40
2022-07-29T16:18:45.401Z,2.60
2022-07-29T16:21:12.532Z,2.60
2022-07-29T16:23:39.848Z,2.30
2022-07-29T16:26:07.253Z,2.50
2022-07-29T16:28:34.670Z,2.80
2022-07-29T16:31:01.733Z,2.40
2022-07-29T16:33:28.665Z,6.60
2022-07-29T16:36:18.457Z,10.30
2022-07-29T16:38:47.162Z,6.90
2022-07-29T16:41:15.109Z,5.10
2022-07-29T16:43:42.060Z,6.00
2022-07-29T16:46:14.002Z,4.40
2022-07-29T16:48:46.123Z,5.20
2022-07-29T16:51:14.428Z,5.40
2022-07-29T16:53:42.009Z,5.40
2022-07-29T16:56:12.885Z,5.30
2022-07-29T16:58:43.441Z,3.90
2022-07-29T17:01:11.676Z,4.30
2022-07-29T17:04:01.037Z,5.30
2022-07-29T17:06:29.569Z,5.30
2022-07-29T17:08:56.699Z,5.30
2022-07-29T17:11:51.833Z,5.70
2022-07-29T17:14:10.573Z,6.20
2022-07-29T17:16:37.984Z,6.10
2022-07-29T17:19:04.925Z,5.40
2022-07-29T17:21:31.651Z,6.30
2022-07-29T17:23:59.702Z,6.50
2022-07-29T17:26:27.150Z,7.20
2022-07-29T17:28:55.492Z,6.60
2022-07-29T17:31:23.421Z,6.70
2022-07-29T17:33:50.415Z,7.20
2022-07-29T17:36:23.445Z,7.50
2022-07-29T17:38:52.576Z,7.60
2022-07-29T17:41:21.690Z,7.60
2022-07-29T17:43:49.486Z,7.90
2022-07-29T17:46:17.518Z,9.00
2022-07-29T17:48:44.378Z,11.40
2022-07-29T17:51:12.002Z,9.70
2022-07-29T17:53:39.270Z,9.20
2022-07-29T17:56:06.670Z,9.40
2022-07-29T17:58:34.198Z,9.10
2022-07-29T18:01:01.074Z,9.20
2022-07-29T18:03:27.897Z,11.00
2022-07-29T18:05:55.338Z,10.80
2022-07-29T18:08:22.228Z,9.80
2022-07-29T18:10:49.688Z,10.70
2022-07-29T18:13:17.447Z,12.00
2022-07-29T18:15:45.845Z,11.40
2022-07-29T18:18:14.119Z,9.60
2022-07-29T18:20:42.300Z,9.00
2022-07-29T18:23:09.557Z,9.10
2022-07-29T18:25:37.290Z,7.90
2022-07-29T18:28:05.402Z,8.40
2022-07-29T18:30:39.386Z,8.30
2022-07-29T18:33:23.415Z,8.30
2022-07-29T18:35:52.225Z,8.00
2022-07-29T18:38:21.285Z,7.60
2022-07-29T18:40:48.240Z,7.30
2022-07-29T18:43:14.998Z,7.60
2022-07-29T18:45:42.568Z,7.60
2022-07-29T18:48:12.884Z,7.40
2022-07-29T18:50:40.838Z,7.40
2022-07-29T18:53:07.944Z,6.40
2022-07-29T18:55:34.890Z,6.70
2022-07-29T18:58:01.652Z,6.80
2022-07-29T19:00:28.732Z,5.70
2022-07-29T19:02:56.724Z,5.60
2022-07-29T19:05:24.088Z,5.70
2022-07-29T19:07:51.074Z,5.60
2022-07-29T19:10:18.348Z,5.60
2022-07-29T19:12:45.609Z,5.50
2022-07-29T19:15:12.480Z,6.30
2022-07-29T19:17:48.071Z,5.60
2022-07-29T19:20:15.202Z,5.50
2022-07-29T19:22:42.132Z,4.70
2022-07-29T19:25:09.447Z,4.70
2022-07-29T19:27:36.313Z,4.70
2022-07-29T19:30:06.010Z,4.60
2022-07-29T19:32:33.247Z,4.40
2022-07-29T19:35:18.677Z,3.90
2022-07-29T19:37:45.484Z,3.90
2022-07-29T19:40:12.642Z,3.50
2022-07-29T19:42:39.420Z,9.90
2022-07-29T19:45:06.621Z,8.40
2022-07-29T19:47:33.438Z,7.80
2022-07-29T19:50:00.337Z,7.20
2022-07-29T19:52:27.881Z,7.40
2022-07-29T19:54:54.769Z,7.70
2022-07-29T19:57:22.232Z,9.80
2022-07-29T19:59:51.009Z,5.20
2022-07-29T20:02:17.902Z,4.70
2022-07-29T20:04:45.329Z,4.60
2022-07-29T20:07:12.982Z,4.10
2022-07-29T20:09:40.631Z,4.30
2022-07-29T20:12:11.111Z,4.20
2022-07-29T20:14:38.026Z,3.90
2022-07-29T20:17:05.094Z,5.30
2022-07-29T20:19:32.651Z,8.10
2022-07-29T20:22:00.182Z,9.90
2022-07-29T20:24:26.969Z,8.50
2022-07-29T20:26:53.815Z,4.70
2022-07-29T20:29:20.847Z,4.50
2022-07-29T20:31:52.894Z,4.80
2022-07-29T20:34:23.226Z,4.00
2022-07-29T20:36:50.061Z,4.00
2022-07-29T20:39:16.831Z,3.70
2022-07-29T20:41:43.904Z,4.20
2022-07-29T20:44:10.841Z,4.00
2022-07-29T20:46:38.701Z,4.40
2022-07-29T20:49:05.543Z,4.50
2022-07-29T20:51:32.835Z,3.90
2022-07-29T20:54:11.241Z,4.20
2022-07-29T20:56:38.591Z,4.40
2022-07-29T20:59:05.315Z,3.70
2022-07-29T21:01:32.167Z,3.90
2022-07-29T21:04:00.679Z,4.20
2022-07-29T21:06:27.475Z,3.80
2022-07-29T21:08:57.333Z,4.20
2022-07-29T21:11:43.238Z,4.00
2022-07-29T21:14:25.191Z,3.90
2022-07-29T21:16:51.930Z,4.10
2022-07-29T21:19:18.888Z,4.40
2022-07-29T21:21:45.958Z,5.20
2022-07-29T21:24:12.788Z,4.20
2022-07-29T21:26:39.629Z,3.50
2022-07-29T21:29:06.441Z,4.10
2022-07-29T21:31:33.361Z,4.00
2022-07-29T21:34:00.519Z,4.20
2022-07-29T21:36:47.609Z,3.70
2022-07-29T21:39:14.008Z,4.00
2022-07-29T21:41:40.699Z,3.80
2022-07-29T21:44:07.506Z,3.70
2022-07-29T21:46:36.045Z,3.40
2022-07-29T21:49:03.077Z,3.90
2022-07-29T21:51:29.967Z,4.40
2022-07-29T21:53:56.799Z,4.20
2022-07-29T21:56:26.342Z,4.50
2022-07-29T21:58:55.661Z,4.30
2022-07-29T22:01:23.450Z,4.20
2022-07-29T22:03:50.212Z,4.00
2022-07-29T22:06:18.184Z,4.00
2022-07-29T22:08:45.541Z,4.10
2022-07-29T22:11:12.767Z,3.90
2022-07-29T22:13:39.938Z,3.80
2022-07-29T22:16:08.901Z,4.10
2022-07-29T22:18:35.630Z,4.40
2022-07-29T22:21:02.396Z,5.40
2022-07-29T22:23:29.212Z,4.50
2022-07-29T22:25:55.941Z,5.50
2022-07-29T22:28:22.651Z,4.80
2022-07-29T22:30:49.524Z,5.40
2022-07-29T22:33:17.686Z,5.10
2022-07-29T22:35:48.615Z,5.50
2022-07-29T22:38:18.587Z,5.20
2022-07-29T22:40:46.486Z,4.90
2022-07-29T22:43:13.323Z,5.40
2022-07-29T22:45:40.788Z,5.50
2022-07-29T22:48:07.537Z,5.40
2022-07-29T22:50:34.289Z,5.90
2022-07-29T22:53:01.259Z,5.70
2022-07-29T22:55:27.981Z,5.80
2022-07-29T22:57:54.718Z,5.20
2022-07-29T23:00:21.524Z,5.50
2022-07-29T23:02:48.561Z,4.40
2022-07-29T23:05:15.954Z,5.20
2022-07-29T23:07:42.858Z,4.60
2022-07-29T23:10:09.938Z,4.90
2022-07-29T23:12:36.760Z,5.40
2022-07-29T23:15:05.266Z,4.90
2022-07-29T23:17:32.401Z,4.80
2022-07-29T23:20:06.672Z,4.60
2022-07-29T23:22:33.617Z,4.60
2022-07-29T23:25:00.339Z,4.60
2022-07-29T23:27:27.045Z,4.80
2022-07-29T23:29:53.777Z,5.30
2022-07-29T23:32:20.485Z,5.00
2022-07-29T23:34:47.173Z,5.30
2022-07-29T23:37:14.040Z,4.60
2022-07-29T23:39:40.724Z,5.20
2022-07-29T23:42:07.575Z,5.60
2022-07-29T23:44:34.490Z,5.40
2022-07-29T23:47:01.423Z,6.30
2022-07-29T23:49:28.473Z,5.30
2022-07-29T23:51:56.564Z,5.60
2022-07-29T23:54:23.356Z,5.50
2022-07-29T23:56:50.101Z,6.50
2022-07-29T23:59:16.776Z,5.90
